Time;durP1;ratioP1;P1;durP2;ratioP2;P2;SDS_P1;SDS_P2;PMS_P1;PMS_P2;Temp;Humidity;BMP_temperature;BMP_pressure;BME280_temperature;BME280_humidity;BME280_pressure;Samples;Min_cycle;Max_cycle;Signal;HPM_P1;HPM_P2
2023/09/08 00:03:42;;;;;;;5.03;4.57;;;;;;;21.45;61.02;96863.25;10448190;28;20094;-26
2023/09/08 00:08:43;;;;;;;5.90;4.28;;;;;;;21.47;61.19;96858.97;10457659;28;20047;-25
2023/09/08 00:13:43;;;;;;;6.88;4.53;;;;;;;21.45;60.87;96855.59;10465004;28;20243;-25
2023/09/08 00:18:43;;;;;;;5.50;5.00;;;;;;;21.48;61.36;96855.56;10461865;28;20513;-25
2023/09/08 00:23:44;;;;;;;7.30;5.35;;;;;;;21.49;61.62;96852.16;10459510;28;20040;-25
2023/09/08 00:28:44;;;;;;;6.40;5.60;;;;;;;21.50;61.83;96856.41;10461791;28;20065;-25
2023/09/08 00:33:44;;;;;;;5.78;5.20;;;;;;;21.49;61.47;96849.59;10465244;28;20033;-25
2023/09/08 00:38:45;;;;;;;6.28;5.00;;;;;;;21.49;61.41;96849.59;10462371;28;20036;-25
2023/09/08 00:43:45;;;;;;;5.90;5.25;;;;;;;21.48;61.33;96847.91;10464703;28;20033;-26
2023/09/08 00:48:48;;;;;;;6.67;5.20;;;;;;;21.49;61.17;96849.59;10480403;28;20032;-25
2023/09/08 00:53:49;;;;;;;6.18;5.32;;;;;;;21.48;61.31;96842.81;10454976;28;20154;-25
2023/09/08 00:58:50;;;;;;;4.95;4.45;;;;;;;21.47;61.13;96847.94;10464002;28;20051;-26
2023/09/08 01:03:51;;;;;;;6.67;5.53;;;;;;;21.45;61.66;96847.97;10461407;28;20044;-25
2023/09/08 01:08:52;;;;;;;5.10;4.60;;;;;;;21.46;61.01;96854.72;10466330;28;20906;-25
2023/09/08 01:13:52;;;;;;;4.82;4.05;;;;;;;21.45;61.07;96853.06;10452994;28;20043;-25
2023/09/08 01:18:55;;;;;;;4.77;4.27;;;;;;;21.46;60.98;96849.63;10462328;28;20033;-26
2023/09/08 01:24:24;;;;;;;5.40;4.10;;;;;;;21.46;60.92;96848.81;10465742;28;20063;-26
2023/09/08 01:29:26;;;;;;;3.40;3.10;;;;;;;21.44;60.90;96856.47;10468333;28;20075;-25
2023/09/08 01:34:29;;;;;;;5.20;3.10;;;;;;;21.45;60.91;96852.19;10469418;28;20053;-25
2023/09/08 01:39:29;;;;;;;6.45;3.45;;;;;;;21.44;60.77;96837.78;10470133;28;20417;-25
2023/09/08 01:44:30;;;;;;;3.92;3.58;;;;;;;21.43;61.21;96836.94;10464704;28;20037;-25
2023/09/08 01:49:30;;;;;;;3.95;3.63;;;;;;;21.43;60.73;96834.41;10452571;28;20441;-25
2023/09/08 01:54:30;;;;;;;4.37;3.40;;;;;;;21.44;60.78;96840.31;10461901;28;20020;-25
2023/09/08 01:59:31;;;;;;;4.00;3.50;;;;;;;21.44;60.63;96841.19;10475050;28;20033;-25
2023/09/08 02:04:32;;;;;;;5.30;3.20;;;;;;;21.44;60.67;96840.31;10471020;28;20475;-25
2023/09/08 02:09:34;;;;;;;2.58;2.38;;;;;;;21.43;60.73;96834.41;10460339;28;20033;-25
2023/09/08 02:14:34;;;;;;;3.70;1.90;;;;;;;21.43;60.67;96843.72;10459119;28;20428;-25
2023/09/08 02:19:35;;;;;;;5.35;3.00;;;;;;;21.44;60.67;96836.09;10471736;28;20033;-25
2023/09/08 02:24:35;;;;;;;3.17;2.97;;;;;;;21.44;60.47;96836.09;10463797;28;20033;-24
2023/09/08 02:29:36;;;;;;;5.33;3.60;;;;;;;21.44;60.61;96836.09;10467657;28;20110;-25
2023/09/08 02:34:37;;;;;;;4.45;2.67;;;;;;;21.44;60.45;96838.63;10458841;28;20368;-25
2023/09/08 02:39:38;;;;;;;2.95;2.38;;;;;;;21.42;60.54;96835.25;10465160;28;20033;-26
2023/09/08 02:44:39;;;;;;;3.67;1.53;;;;;;;21.41;60.52;96838.63;10463445;28;20033;-25
2023/09/08 02:49:39;;;;;;;1.73;1.50;;;;;;;21.41;60.45;96835.25;10468374;28;20043;-25
2023/09/08 02:54:40;;;;;;;2.70;1.08;;;;;;;21.41;60.55;96833.53;10456810;28;20056;-25
2023/09/08 02:59:40;;;;;;;2.85;1.67;;;;;;;21.42;60.80;96842.03;10457204;28;20037;-25
2023/09/08 03:04:42;;;;;;;3.83;2.30;;;;;;;21.42;60.62;96837.81;10466477;28;20040;-25
2023/09/08 03:09:43;;;;;;;4.95;3.70;;;;;;;21.43;60.95;96829.31;10474451;28;20029;-25
2023/09/08 03:14:44;;;;;;;3.80;3.47;;;;;;;21.44;60.78;96840.31;10458661;28;20040;-25
2023/09/08 03:19:46;;;;;;;5.60;3.90;;;;;;;21.44;60.39;96835.22;10466919;28;20664;-24
2023/09/08 03:24:46;;;;;;;5.10;2.90;;;;;;;21.44;60.47;96850.50;10464326;28;20037;-25
2023/09/08 03:29:46;;;;;;;2.63;2.40;;;;;;;21.42;60.31;96836.94;10465211;28;20406;-25
2023/09/08 03:34:47;;;;;;;3.77;2.70;;;;;;;21.42;60.45;96848.00;10472312;28;20115;-25
2023/09/08 03:39:47;;;;;;;4.45;2.13;;;;;;;21.43;60.40;96851.38;10453136;28;20060;-25
2023/09/08 03:44:47;;;;;;;4.53;2.33;;;;;;;21.42;60.73;96842.03;10461244;28;20036;-25
2023/09/08 03:49:48;;;;;;;2.28;1.50;;;;;;;21.41;60.56;96845.44;10467489;28;20330;-25
2023/09/08 03:54:48;;;;;;;1.38;1.27;;;;;;;21.37;60.55;96833.59;10464931;28;20025;-25
2023/09/08 03:59:49;;;;;;;2.72;1.13;;;;;;;21.40;60.36;96836.94;10473613;28;20028;-25
2023/09/08 04:04:50;;;;;;;3.47;3.17;;;;;;;21.45;60.43;96842.00;10476237;28;20032;-25
2023/09/08 04:09:50;;;;;;;5.57;4.90;;;;;;;21.45;60.90;96847.97;10472733;28;20035;-26
2023/09/08 04:14:50;;;;;;;3.67;3.30;;;;;;;21.44;60.41;96843.72;10481473;28;20024;-25
2023/09/08 04:19:51;;;;;;;3.97;2.87;;;;;;;21.43;60.27;96849.69;10470902;28;20560;-25
2023/09/08 04:24:53;;;;;;;3.63;3.17;;;;;;;21.45;60.51;96842.00;10470092;28;20486;-25
2023/09/08 04:29:53;;;;;;;2.58;2.38;;;;;;;21.44;60.40;96842.88;10463744;28;20041;-25
2023/09/08 04:34:53;;;;;;;4.93;3.67;;;;;;;21.44;60.47;96851.38;10468478;28;20025;-25
2023/09/08 04:39:54;;;;;;;8.03;4.87;;;;;;;21.40;60.75;96852.25;10466295;28;20299;-25
2023/09/08 04:44:54;;;;;;;4.80;4.32;;;;;;;21.45;60.45;96847.97;10466408;28;20354;-27
2023/09/08 04:49:56;;;;;;;6.15;4.97;;;;;;;21.44;60.39;96853.91;10472727;28;20032;-25
2023/09/08 04:54:57;;;;;;;6.85;4.97;;;;;;;21.45;60.56;96858.16;10476733;28;20025;-25
2023/09/08 04:59:58;;;;;;;4.70;4.30;;;;;;;21.44;60.63;96861.56;10465167;28;20380;-25
2023/09/08 05:05:00;;;;;;;4.90;4.07;;;;;;;21.42;60.70;96857.31;10474005;28;20036;-25
2023/09/08 05:10:00;;;;;;;5.95;5.18;;;;;;;21.47;61.14;96866.59;10462050;28;20482;-25
2023/09/08 05:15:14;;;;;;;6.28;5.13;;;;;;;21.43;63.19;96864.97;10467090;28;20032;-25
2023/09/08 05:20:16;;;;;;;3.72;2.75;;;;;;;21.46;61.61;96879.38;10473536;28;20032;-24
2023/09/08 05:25:17;;;;;;;1.88;1.73;;;;;;;21.47;61.51;96875.97;10475999;28;20044;-25
2023/09/08 05:30:17;;;;;;;2.13;1.92;;;;;;;21.49;61.10;96875.06;10465884;28;20033;-25
2023/09/08 05:35:20;;;;;;;2.13;1.58;;;;;;;21.51;60.85;96873.38;10468477;28;20028;-25
2023/09/08 05:40:24;;;;;;;3.65;1.50;;;;;;;21.52;60.79;96880.16;10464297;28;20458;-25
2023/09/08 05:45:25;;;;;;;2.03;1.83;;;;;;;21.54;60.93;96883.53;10461128;28;20033;-25
2023/09/08 05:50:26;;;;;;;1.85;1.55;;;;;;;21.54;60.81;96886.06;10473799;28;20029;-25
2023/09/08 05:55:27;;;;;;;2.15;1.92;;;;;;;21.54;61.01;96888.63;10463581;28;20021;-25
2023/09/08 06:00:27;;;;;;;2.50;1.70;;;;;;;21.54;60.92;96886.06;10455605;28;20032;-25
2023/09/08 06:05:28;;;;;;;4.30;2.15;;;;;;;21.53;60.87;96881.84;10451833;28;20517;-25
2023/09/08 06:10:30;;;;;;;2.10;1.90;;;;;;;21.55;61.13;96884.38;10451370;28;20194;-25
2023/09/08 06:15:31;;;;;;;2.17;1.98;;;;;;;21.54;61.36;96891.19;10474792;28;20367;-25
2023/09/08 06:20:32;;;;;;;1.95;1.83;;;;;;;21.55;61.15;96886.94;10474509;28;20036;-25
2023/09/08 06:25:33;;;;;;;6.20;4.78;;;;;;;21.72;67.22;96892.75;10462696;28;20402;-24
2023/09/08 06:30:33;;;;;;;3.30;3.00;;;;;;;21.62;62.38;96893.63;10473253;28;20032;-25
2023/09/08 06:35:34;;;;;;;4.32;3.83;;;;;;;21.60;62.60;96892.81;10464806;28;20032;-25
2023/09/08 06:40:34;;;;;;;6.82;4.75;;;;;;;21.69;65.01;96891.06;10451830;28;20071;-25
2023/09/08 06:45:39;;;;;;;5.03;3.47;;;;;;;21.64;63.14;96885.13;10467842;28;20032;-25
2023/09/08 06:50:39;;;;;;;5.45;4.72;;;;;;;21.59;63.00;96876.69;10461845;28;20033;-25
2023/09/08 06:55:40;;;;;;;3.33;2.65;;;;;;;21.57;61.72;96883.50;10475419;28;20111;-25
2023/09/08 07:00:41;;;;;;;3.72;3.42;;;;;;;21.57;62.82;96888.59;10457866;28;20036;-25
2023/09/08 07:05:42;;;;;;;2.75;2.55;;;;;;;21.55;62.00;96890.31;10458878;28;20509;-25
2023/09/08 07:10:51;;;;;;;4.78;3.95;;;;;;;21.55;61.97;96894.59;10460809;28;20035;-25
2023/09/08 07:15:51;;;;;;;4.95;2.25;;;;;;;21.54;62.39;96896.28;10470441;28;20021;-25
2023/09/08 07:20:52;;;;;;;3.15;2.85;;;;;;;21.53;62.50;96888.63;10469272;28;20044;-26
2023/09/08 07:25:54;;;;;;;5.07;3.33;;;;;;;21.52;62.73;96887.81;10464283;28;20087;-26
2023/09/08 07:31:06;;;;;;;3.50;3.20;;;;;;;21.52;61.96;96880.16;10478129;28;20029;-26
2023/09/08 07:36:10;;;;;;;3.38;3.08;;;;;;;21.52;62.17;96887.81;10478996;28;20028;-26
2023/09/08 07:41:12;;;;;;;9.02;5.03;;;;;;;21.53;62.14;96888.63;10474917;28;20051;-25
2023/09/08 07:46:13;;;;;;;2.72;2.53;;;;;;;21.52;61.75;96890.34;10469699;28;20112;-25
2023/09/08 07:51:14;;;;;;;4.03;3.63;;;;;;;21.50;62.02;96886.97;10464355;28;20047;-26
2023/09/08 07:56:14;;;;;;;4.33;3.27;;;;;;;21.47;61.65;96887.00;10469243;28;20097;-25
2023/09/08 08:01:15;;;;;;;3.45;2.88;;;;;;;21.49;61.87;96900.56;10473885;28;20835;-25
2023/09/08 08:06:15;;;;;;;4.65;4.25;;;;;;;21.50;61.78;96897.19;10460450;28;20037;-26
2023/09/08 08:11:19;;;;;;;6.00;4.70;;;;;;;21.49;61.86;96890.34;10465016;28;20121;-26
2023/09/08 08:16:21;;;;;;;5.95;4.28;;;;;;;21.53;62.24;96892.03;10458303;28;20033;-25
2023/09/08 08:21:22;;;;;;;4.97;4.38;;;;;;;21.49;62.02;96887.81;10458573;28;20033;-26
2023/09/08 08:26:27;;;;;;;2.90;2.70;;;;;;;21.52;62.01;96890.34;10457633;28;20037;-25
2023/09/08 08:31:28;;;;;;;3.15;2.67;;;;;;;21.52;62.04;96892.03;10460979;28;20098;-25
2023/09/08 08:36:29;;;;;;;3.10;2.90;;;;;;;21.39;61.92;96873.47;10451647;28;20142;-25
2023/09/08 08:41:29;;;;;;;5.50;3.90;;;;;;;21.53;61.88;96899.69;10457856;28;20626;-26
2023/09/08 08:46:30;;;;;;;5.63;3.15;;;;;;;21.52;61.97;96900.53;10462871;28;20037;-25
2023/09/08 08:51:31;;;;;;;3.05;2.75;;;;;;;21.48;62.11;96878.47;10468468;28;20089;-25
2023/09/08 08:56:32;;;;;;;4.18;2.72;;;;;;;21.53;62.03;96891.19;10455217;28;20036;-26
2023/09/08 09:01:33;;;;;;;7.40;3.75;;;;;;;21.53;62.28;96886.94;10467167;28;20085;-26
2023/09/08 09:06:34;;;;;;;3.20;2.90;;;;;;;21.50;62.29;96886.97;10469465;28;20086;-25
2023/09/08 09:11:34;;;;;;;5.07;2.47;;;;;;;21.54;62.35;96896.28;10478473;28;20136;-27
2023/09/08 09:16:42;;;;;;;2.73;2.30;;;;;;;21.59;61.94;96893.69;10462851;28;20104;-26
2023/09/08 09:21:47;;;;;;;2.60;2.40;;;;;;;21.59;61.63;96886.91;10458335;28;20028;-26
2023/09/08 09:26:52;;;;;;;22.90;3.17;;;;;;;21.59;61.46;96886.03;10453182;28;20033;-26
2023/09/08 09:32:01;;;;;;;3.85;2.30;;;;;;;21.57;61.61;96882.66;10472819;28;20032;-25
2023/09/08 09:37:05;;;;;;;6.80;2.80;;;;;;;21.58;61.89;96890.31;10453133;28;20025;-26
2023/09/08 09:42:06;;;;;;;2.55;2.35;;;;;;;21.59;61.78;96886.03;10452596;28;20037;-26
2023/09/08 09:47:08;;;;;;;4.28;2.90;;;;;;;21.58;62.08;96884.34;10460034;28;20536;-26
2023/09/08 09:52:12;;;;;;;5.43;2.97;;;;;;;21.58;62.15;96890.31;10462349;28;20032;-26
2023/09/08 09:57:13;;;;;;;7.88;2.60;;;;;;;21.58;62.31;96886.91;10458618;28;20450;-25
2023/09/08 10:02:14;;;;;;;2.85;2.45;;;;;;;21.57;62.40;96875.84;10454079;28;20025;-25
2023/09/08 10:07:16;;;;;;;2.47;2.28;;;;;;;21.57;62.20;96873.31;10457853;28;20414;-26
2023/09/08 10:12:19;;;;;;;6.38;4.30;;;;;;;21.57;62.39;96872.47;10464325;28;20037;-26
2023/09/08 10:17:25;;;;;;;9.30;5.40;;;;;;;21.58;63.02;96874.16;10457861;28;20107;-25
2023/09/08 10:22:29;;;;;;;;;;;;;;;21.59;63.04;96865.66;10456004;28;20410;-26
2023/09/08 10:27:32;;;;;;;10.32;4.13;;;;;;;21.63;62.80;96865.59;10456946;28;19970;-26
2023/09/08 10:32:35;;;;;;;5.20;2.95;;;;;;;21.62;62.88;96861.38;10459160;28;20048;-26
2023/09/08 10:37:36;;;;;;;6.10;2.90;;;;;;;21.60;62.34;96863.09;10458384;28;20044;-26
2023/09/08 10:42:40;;;;;;;7.43;4.72;;;;;;;21.59;62.22;96861.41;10450693;28;20044;-26
2023/09/08 10:47:46;;;;;;;12.75;4.63;;;;;;;21.58;62.22;96852.09;10458925;28;20041;-26
2023/09/08 10:53:04;;;;;;;6.88;2.92;;;;;;;21.57;62.05;96847.81;10461127;28;20052;-26
2023/09/08 10:58:05;;;;;;;6.82;3.10;;;;;;;21.57;62.28;96842.72;10463398;28;20479;-26
2023/09/08 11:03:06;;;;;;;9.90;3.50;;;;;;;21.58;62.03;96851.22;10457152;28;20040;-26
2023/09/08 11:08:06;;;;;;;4.10;2.58;;;;;;;21.57;62.29;96847.81;10449845;28;20061;-26
2023/09/08 11:13:07;;;;;;;6.33;4.00;;;;;;;21.57;62.37;96842.72;10449208;28;20131;-26
2023/09/08 11:18:10;;;;;;;4.70;3.37;;;;;;;21.57;62.15;96842.72;10463453;28;20414;-26
2023/09/08 11:23:10;;;;;;;6.18;3.85;;;;;;;21.57;62.23;96847.00;10458579;28;20057;-25
2023/09/08 11:28:11;;;;;;;12.05;4.70;;;;;;;21.56;62.12;96840.22;10449577;28;20445;-26
2023/09/08 11:33:24;;;;;;;3.70;3.03;;;;;;;21.58;62.23;96843.59;10451708;28;20063;-26
2023/09/08 11:38:26;;;;;;;5.60;3.30;;;;;;;21.55;62.23;96836.81;10450964;28;20034;-25
2023/09/08 11:43:27;;;;;;;9.32;4.30;;;;;;;21.58;62.39;96846.13;10457150;28;20025;-25
2023/09/08 11:48:28;;;;;;;9.10;5.25;;;;;;;21.60;62.43;96844.41;10454525;28;20039;-25
2023/09/08 11:53:28;;;;;;;9.10;5.47;;;;;;;21.62;62.47;96843.53;10453717;28;20162;-26
2023/09/08 11:58:29;;;;;;;7.50;5.00;;;;;;;21.59;62.38;96835.94;10457712;28;20333;-25
2023/09/08 12:03:29;;;;;;;10.27;5.75;;;;;;;21.56;62.44;96835.94;10474685;28;20036;-26
2023/09/08 12:08:30;;;;;;;5.00;4.07;;;;;;;21.59;62.36;96835.94;10456248;28;20115;-24
2023/09/08 12:13:30;;;;;;;5.40;4.22;;;;;;;21.60;62.64;96835.06;10417500;28;20400;-26
2023/09/08 12:18:39;;;;;;;5.33;4.40;;;;;;;21.60;62.58;96826.56;10418290;28;20498;-25
2023/09/08 12:23:50;;;;;;;6.28;4.03;;;;;;;21.59;62.63;96825.75;10425254;28;20042;-25
2023/09/08 12:28:51;;;;;;;5.18;4.47;;;;;;;21.59;62.70;96818.09;10416546;28;20095;-26
2023/09/08 12:33:52;;;;;;;5.32;4.43;;;;;;;21.60;62.41;96822.34;10421190;28;20037;-26
2023/09/08 12:38:52;;;;;;;9.10;4.68;;;;;;;21.61;62.52;96818.06;10427514;28;20102;-25
2023/09/08 12:43:53;;;;;;;4.70;4.28;;;;;;;21.59;62.50;96815.56;10428663;28;20041;-25
2023/09/08 12:48:53;;;;;;;6.37;5.10;;;;;;;21.56;62.43;96813.00;10422320;28;20044;-26
2023/09/08 12:53:54;;;;;;;5.65;5.03;;;;;;;21.62;62.45;96814.66;10415654;28;20034;-26
2023/09/08 12:58:54;;;;;;;5.33;4.80;;;;;;;21.61;62.36;96808.72;10416155;28;20044;-26
2023/09/08 13:03:54;;;;;;;6.70;5.00;;;;;;;21.61;62.69;96807.88;10421790;28;20488;-26
2023/09/08 13:08:55;;;;;;;7.80;6.00;;;;;;;21.63;62.64;96812.09;10412685;28;20037;-26
2023/09/08 13:13:55;;;;;;;6.10;4.10;;;;;;;21.64;62.83;96803.59;10421933;28;20120;-26
2023/09/08 13:18:55;;;;;;;4.80;4.37;;;;;;;21.61;62.50;96795.13;10425814;28;20033;-25
2023/09/08 13:23:56;;;;;;;4.80;4.23;;;;;;;21.60;62.69;96790.91;10420416;28;20038;-26
2023/09/08 13:28:56;;;;;;;5.20;4.50;;;;;;;21.60;62.74;96799.41;10418155;28;20128;-26
2023/09/08 13:33:56;;;;;;;4.27;3.87;;;;;;;21.59;62.54;96795.16;10428504;28;20095;-26
2023/09/08 13:38:58;;;;;;;5.10;4.07;;;;;;;21.60;62.78;96789.22;10417291;28;20040;-25
2023/09/08 13:43:59;;;;;;;5.68;5.07;;;;;;;21.60;62.63;96794.31;10412856;28;20033;-26
2023/09/08 13:48:59;;;;;;;7.53;5.50;;;;;;;21.63;62.45;96789.16;10416838;28;20041;-26
2023/09/08 13:53:59;;;;;;;6.87;4.97;;;;;;;21.69;63.74;96786.59;10419557;28;20103;-26
2023/09/08 13:59:01;;;;;;;5.83;5.20;;;;;;;21.72;63.67;96780.63;10427498;28;20033;-26
2023/09/08 14:04:02;;;;;;;5.32;4.80;;;;;;;21.68;63.03;96779.81;10421104;28;20121;-26
2023/09/08 14:09:04;;;;;;;5.20;4.53;;;;;;;21.66;62.75;96776.41;10412256;28;20029;-25
2023/09/08 14:14:04;;;;;;;6.15;4.72;;;;;;;21.63;62.55;96771.31;10412613;28;20049;-26
2023/09/08 14:19:05;;;;;;;5.83;5.07;;;;;;;21.65;62.61;96771.34;10418815;28;20058;-25
2023/09/08 14:24:05;;;;;;;7.40;4.05;;;;;;;21.64;62.71;96767.91;10411461;28;20041;-26
2023/09/08 14:29:06;;;;;;;4.50;4.10;;;;;;;21.63;62.50;96766.22;10416822;28;20290;-25
2023/09/08 14:34:06;;;;;;;5.20;4.50;;;;;;;21.63;62.48;96761.13;10417306;28;20030;-26
2023/09/08 14:39:06;;;;;;;3.53;3.00;;;;;;;21.61;62.70;96757.75;10422031;28;20040;-25
2023/09/08 14:44:07;;;;;;;6.30;4.33;;;;;;;21.63;62.69;96758.59;10428610;28;20299;-25
2023/09/08 14:49:07;;;;;;;5.53;4.20;;;;;;;21.61;62.63;96752.66;10428540;28;20037;-25
2023/09/08 14:54:07;;;;;;;3.33;3.03;;;;;;;21.56;62.71;96741.69;10420586;28;20041;-26
2023/09/08 14:59:08;;;;;;;4.80;4.13;;;;;;;21.60;62.66;96751.00;10430919;28;20124;-26
2023/09/08 15:04:08;;;;;;;2.65;2.45;;;;;;;21.61;62.48;96757.75;10424055;28;20041;-26
2023/09/08 15:09:09;;;;;;;8.03;3.30;;;;;;;21.62;62.31;96753.50;10417975;28;20142;-26
2023/09/08 15:14:09;;;;;;;6.70;3.83;;;;;;;21.62;62.51;96756.03;10423191;28;20037;-27
2023/09/08 15:19:09;;;;;;;9.93;3.90;;;;;;;21.60;62.54;96745.88;10422239;28;20116;-26
2023/09/08 15:24:10;;;;;;;10.07;4.80;;;;;;;21.63;62.60;96745.84;10411966;28;20384;-25
2023/09/08 15:29:12;;;;;;;12.73;5.77;;;;;;;21.65;62.76;96749.25;10424002;28;20099;-26
2023/09/08 15:34:12;;;;;;;13.68;6.60;;;;;;;21.68;62.84;96736.47;10417026;28;20286;-25
2023/09/08 15:39:14;;;;;;;6.50;4.87;;;;;;;21.67;62.80;96736.50;10430405;28;20029;-25
2023/09/08 15:44:14;;;;;;;7.10;4.95;;;;;;;21.65;63.06;96740.78;10414629;28;20056;-26
2023/09/08 15:49:15;;;;;;;5.68;4.10;;;;;;;21.64;62.74;96736.50;10443849;28;20040;-26
2023/09/08 15:54:15;;;;;;;6.00;4.53;;;;;;;21.58;62.63;96719.59;10416183;28;20112;-26
2023/09/08 15:59:15;;;;;;;6.40;3.97;;;;;;;21.63;62.67;96725.47;10422566;28;20033;-26
2023/09/08 16:04:16;;;;;;;5.27;3.87;;;;;;;21.64;62.91;96731.41;10418808;28;20041;-26
2023/09/08 16:09:16;;;;;;;5.53;4.03;;;;;;;21.64;62.85;96723.78;10417855;28;20295;-25
2023/09/08 16:14:16;;;;;;;3.73;3.20;;;;;;;21.65;62.56;96733.94;10415572;28;20465;-25
2023/09/08 16:19:18;;;;;;;6.37;4.13;;;;;;;21.64;62.81;96727.16;10414872;28;20116;-26
2023/09/08 16:24:18;;;;;;;5.63;3.63;;;;;;;21.65;62.92;96728.84;10434535;28;20094;-25
2023/09/08 16:29:19;;;;;;;4.67;4.27;;;;;;;21.66;62.64;96720.34;10427718;28;20405;-25
2023/09/08 16:34:19;;;;;;;9.25;5.45;;;;;;;21.68;62.68;96727.97;10435062;28;20086;-25
2023/09/08 16:39:19;;;;;;;6.30;3.10;;;;;;;21.71;68.73;96738.16;10429453;28;20491;-28
2023/09/08 16:44:20;;;;;;;5.77;3.53;;;;;;;21.73;65.86;96736.44;10424708;28;20091;-26
2023/09/08 16:49:20;;;;;;;11.00;3.73;;;;;;;21.72;65.15;96740.66;10429799;28;20112;-26
2023/09/08 16:54:20;;;;;;;10.33;4.50;;;;;;;21.74;64.24;96733.84;10429611;28;20022;-26
2023/09/08 16:59:21;;;;;;;13.67;4.60;;;;;;;21.77;64.65;96738.06;10422232;28;20033;-26
2023/09/08 17:04:22;;;;;;;11.77;5.00;;;;;;;21.72;63.19;96740.66;10417988;28;20037;-26
2023/09/08 17:09:24;;;;;;;9.50;4.07;;;;;;;21.70;63.14;96739.84;10417097;28;20029;-26
2023/09/08 17:14:25;;;;;;;6.75;4.00;;;;;;;21.68;63.11;96741.56;10411861;28;20033;-25
2023/09/08 17:19:25;;;;;;;6.77;3.30;;;;;;;21.72;64.22;96740.66;10429286;28;20041;-27
2023/09/08 17:24:27;;;;;;;11.77;3.63;;;;;;;21.69;63.11;96738.16;10419524;28;20683;-25
2023/09/08 17:29:29;;;;;;;4.93;3.60;;;;;;;21.67;63.08;96745.00;10419597;28;20033;-25
2023/09/08 17:34:29;;;;;;;5.45;2.92;;;;;;;21.66;62.67;96743.28;10427282;28;20055;-27
2023/09/08 17:39:30;;;;;;;7.13;3.23;;;;;;;21.66;63.13;96747.56;10415029;28;20038;-26
2023/09/08 17:44:31;;;;;;;7.45;3.38;;;;;;;21.67;62.97;96751.78;10418168;28;20041;-25
2023/09/08 17:49:34;;;;;;;5.18;3.33;;;;;;;21.65;62.89;96749.25;10417249;28;20033;-26
2023/09/08 17:54:35;;;;;;;5.10;2.70;;;;;;;21.65;62.71;96756.88;10427005;28;20095;-26
2023/09/08 17:59:35;;;;;;;8.03;4.03;;;;;;;21.66;62.62;96755.19;10415751;28;20487;-25
2023/09/08 18:04:35;;;;;;;5.60;3.10;;;;;;;21.65;62.78;96759.44;10409129;28;20073;-26
2023/09/08 18:09:36;;;;;;;6.00;3.07;;;;;;;21.64;62.61;96757.72;10418368;28;20515;-26
2023/09/08 18:14:36;;;;;;;6.75;2.97;;;;;;;21.67;62.90;96777.25;10423207;28;20082;-27
2023/09/08 18:19:37;;;;;;;7.50;2.93;;;;;;;21.74;64.00;96774.63;10411639;28;20083;-27
2023/09/08 18:24:37;;;;;;;19.40;3.13;;;;;;;21.69;63.53;96781.50;10428097;28;20052;-25
2023/09/08 18:29:38;;;;;;;5.77;2.77;;;;;;;21.70;62.91;96785.72;10418175;28;20490;-26
2023/09/08 18:34:38;;;;;;;6.23;4.17;;;;;;;21.68;62.53;96784.03;10412483;28;20735;-26
2023/09/08 18:39:38;;;;;;;6.23;3.93;;;;;;;21.69;62.67;96786.59;10423236;28;20514;-25
2023/09/08 18:44:42;;;;;;;5.53;3.83;;;;;;;21.68;62.71;96797.66;10414931;28;20037;-26
2023/09/08 18:49:42;;;;;;;6.38;3.70;;;;;;;21.68;62.51;96800.19;10409037;28;20557;-26
2023/09/08 18:54:43;;;;;;;5.47;3.42;;;;;;;21.67;62.58;96793.41;10418820;28;20029;-26
2023/09/08 18:59:45;;;;;;;6.32;3.45;;;;;;;21.68;62.94;96804.44;10413484;28;20052;-26
2023/09/08 19:04:45;;;;;;;3.10;2.30;;;;;;;21.67;62.39;96803.59;10415171;28;20064;-26
2023/09/08 19:09:46;;;;;;;5.77;3.10;;;;;;;21.62;62.45;96800.22;10411598;28;20091;-26
2023/09/08 19:14:46;;;;;;;5.15;3.08;;;;;;;21.67;62.30;96812.94;10412679;28;20315;-26
2023/09/08 19:19:46;;;;;;;9.57;3.22;;;;;;;21.66;62.51;96812.06;10412796;28;20041;-26
2023/09/08 19:24:52;;;;;;;5.07;2.27;;;;;;;21.65;62.37;96815.50;10411354;28;20037;-26
2023/09/08 19:29:52;;;;;;;5.27;2.80;;;;;;;21.64;62.52;96818.88;10418180;28;20298;-25
2023/09/08 19:34:53;;;;;;;4.33;2.20;;;;;;;21.64;62.37;96816.31;10424515;28;20040;-26
2023/09/08 19:39:53;;;;;;;4.83;2.27;;;;;;;21.64;62.28;96811.22;10418063;28;20275;-26
2023/09/08 19:44:53;;;;;;;4.60;2.40;;;;;;;21.64;62.36;96813.78;10406016;28;20029;-26
2023/09/08 19:49:54;;;;;;;3.50;2.40;;;;;;;21.65;62.31;96815.50;10403800;28;20483;-26
2023/09/08 19:54:57;;;;;;;12.30;4.40;;;;;;;21.72;66.15;96811.19;10418077;28;20275;-25
2023/09/08 19:59:57;;;;;;;6.32;2.72;;;;;;;21.76;64.04;96813.69;10409328;28;20300;-26
2023/09/08 20:04:57;;;;;;;5.93;2.20;;;;;;;21.69;62.66;96806.97;10422714;28;20038;-27
2023/09/08 20:09:58;;;;;;;7.60;2.60;;;;;;;21.69;62.41;96812.06;10428430;28;20037;-26
2023/09/08 20:14:58;;;;;;;8.50;2.93;;;;;;;21.69;62.48;96811.22;10418489;28;20033;-26
2023/09/08 20:19:59;;;;;;;4.35;2.70;;;;;;;21.69;62.34;96808.66;10423246;28;20039;-26
2023/09/08 20:24:59;;;;;;;3.33;2.45;;;;;;;21.68;62.44;96812.94;10417558;28;20033;-26
2023/09/08 20:30:00;;;;;;;7.33;3.30;;;;;;;21.69;62.36;96808.66;10412743;28;20387;-26
2023/09/08 20:35:00;;;;;;;3.95;3.00;;;;;;;21.69;62.42;96812.06;10432923;28;20551;-27
2023/09/08 20:40:01;;;;;;;4.93;2.90;;;;;;;21.69;62.29;96812.06;10425425;28;20040;-26
2023/09/08 20:45:01;;;;;;;7.50;3.40;;;;;;;21.68;62.32;96805.28;10421577;28;20116;-26
2023/09/08 20:50:01;;;;;;;5.60;3.03;;;;;;;21.66;62.22;96799.34;10422384;28;20037;-26
2023/09/08 20:55:03;;;;;;;5.10;3.13;;;;;;;21.69;62.10;96801.88;10424798;28;20025;-26
2023/09/08 21:00:04;;;;;;;4.32;3.38;;;;;;;21.69;62.36;96806.13;10423749;28;20562;-26
2023/09/08 21:05:05;;;;;;;5.18;2.72;;;;;;;21.69;62.22;96803.56;10415181;28;20059;-26
2023/09/08 21:10:06;;;;;;;4.43;2.70;;;;;;;21.68;62.12;96807.84;10424544;28;20033;-26
2023/09/08 21:15:07;;;;;;;4.13;3.45;;;;;;;21.68;62.11;96805.28;10412638;28;20057;-26
2023/09/08 21:20:08;;;;;;;4.40;2.67;;;;;;;21.67;62.14;96806.16;10415977;28;20421;-26
2023/09/08 21:25:08;;;;;;;3.33;2.40;;;;;;;21.67;62.20;96808.69;10420372;28;20056;-26
2023/09/08 21:30:09;;;;;;;2.33;2.10;;;;;;;21.67;61.97;96795.97;10423405;28;20033;-26
2023/09/08 21:35:09;;;;;;;4.95;2.70;;;;;;;21.67;61.97;96803.59;10416309;28;20029;-26
2023/09/08 21:40:10;;;;;;;4.18;3.78;;;;;;;21.63;61.90;96796.81;10412619;28;20037;-26
2023/09/08 21:45:11;;;;;;;3.95;3.17;;;;;;;21.69;61.96;96801.00;10412034;28;20025;-26
2023/09/08 21:50:11;;;;;;;5.30;4.10;;;;;;;21.69;62.03;96795.91;10422528;28;20029;-26
2023/09/08 21:55:11;;;;;;;6.00;4.50;;;;;;;21.70;62.04;96801.00;10423409;28;20037;-27
2023/09/08 22:00:17;;;;;;;6.53;4.60;;;;;;;21.69;61.96;96799.31;10419617;28;20120;-26
2023/09/08 22:05:17;;;;;;;4.88;3.85;;;;;;;21.68;61.70;96795.09;10418942;28;20328;-26
2023/09/08 22:10:17;;;;;;;4.83;2.93;;;;;;;21.69;61.84;96793.38;10417015;28;20053;-26
2023/09/08 22:15:20;;;;;;;4.93;4.40;;;;;;;21.69;61.68;96795.91;10410313;28;20475;-26
2023/09/08 22:20:22;;;;;;;5.72;4.43;;;;;;;21.72;61.97;96793.34;10421310;28;20106;-26
2023/09/08 22:25:22;;;;;;;5.35;4.32;;;;;;;21.73;61.86;96785.66;10418537;28;20033;-26
2023/09/08 22:30:23;;;;;;;5.67;4.17;;;;;;;21.73;61.78;96788.22;10428819;28;20025;-26
2023/09/08 22:35:23;;;;;;;6.07;4.23;;;;;;;21.72;61.75;96776.34;10409989;28;20609;-26
2023/09/08 22:40:24;;;;;;;7.73;4.50;;;;;;;21.71;61.71;96774.66;10417653;28;20478;-26
2023/09/08 22:45:24;;;;;;;4.68;3.70;;;;;;;21.70;61.69;96772.13;10414348;28;20294;-26
2023/09/08 22:50:26;;;;;;;4.38;3.60;;;;;;;21.70;61.74;96764.47;10412085;28;20043;-26
2023/09/08 22:55:26;;;;;;;7.90;4.22;;;;;;;21.70;61.75;96775.53;10408706;28;20408;-26
2023/09/08 23:00:26;;;;;;;3.63;3.33;;;;;;;21.68;61.79;96769.63;10425445;28;20039;-26
2023/09/08 23:05:27;;;;;;;5.40;3.63;;;;;;;21.68;61.62;96777.25;10408296;28;20087;-26
2023/09/08 23:10:27;;;;;;;3.30;3.00;;;;;;;21.67;61.55;96778.13;10421801;28;20052;-26
2023/09/08 23:15:28;;;;;;;6.27;3.60;;;;;;;21.67;61.72;96779.81;10408387;28;20030;-26
2023/09/08 23:20:28;;;;;;;4.68;2.95;;;;;;;21.67;61.53;96772.16;10409608;28;20280;-26